Enter the Airport ICAO Code

Search by Airport or City

Current Weather

GCLP | Gran Canaria Airport

Gran Canaria, Canary Islands, Spain

Last Update 10 Minutes Ago

Sky with Few Clouds

Temperature of 19 ºC

Light Winds from NorthWest

Temperature

19 ºC

Dew Point Temperature

15 ºC

Relative Humidity

77.73 %

Wind Direction

NorthWest (300º, Ranging from 260º to 340º)

Wind Velocity

7 km/h (04 kt)

Gusts

None

Visibility

Greater than 10 Kilometers

Sea Level Pressure

1015 hPa (Hectopascals)

Layers of Clouds

5% to 30% of Sky Covered from 1372 mts (4500 ft) Above Ground Level.

METAR GCLP 022130Z 30004KT 260V340 9999 FEW045 19/15 Q1015 NOSIG

Weather Forecast

GCLP | Gran Canaria Airport

Gran Canaria, Canary Islands, Spain

Forecast valid for the next 23 Hours

From now on it is expected:

Sky with Few Clouds

Light to Moderate Winds from NorthWest

In 12 hours it is expected the begining of 3 hours with intermittent periods of:

Moderate Winds from South

Maximum Temperature

24 ºC in 16 Hours

Minimum Temperature

16 ºC in 9 Hours

TAF GCLP 022000Z 0221/0321 32006KT 9999 FEW030 TX24/0314Z TN16/0307Z PROB30 TEMPO 0310/0313 17010KT